SANTA FE DAM RAWS NEAR IRWINDALE 1NW ( HADS current weather conditions

sailwx.info

Wind from 077 at 6 knots gusting 11

Air temperature 17.8° C
Dewpoint -5.5° C

Last reported at 2017-Nov-19 15:57 UTC.
Time now 2017-Nov-19 16:17 UTC

Location: N 34°08' W 117°57'.
View on Google Maps.

See reports from other nearby stations

  
Tides and Currents Weather Stations Pressure Air Temp Water Temp Dewpoint Dewpoint Depression Visibility Wind Speed Wind Dir Waves Ship Positions
date/time (UTC)wind fromknots sea level pressurealtimeterstation pressurevisibilityair tempwater tempwave heightnotes
2017-Nov-19 15:57 077 6 gusting 11 17.8
2017-Nov-19 14:57 052 4 gusting 10 15.6
2017-Nov-19 13:57 046 5 gusting 11 14.4
2017-Nov-19 12:57 066 3 gusting 7 15.0
2017-Nov-19 11:57 053 2 gusting 9 15.6
2017-Nov-19 10:57 055 1 gusting 11 15.0
2017-Nov-19 09:57 030 6 gusting 10 15.6
2017-Nov-19 08:57 056 3 gusting 7 16.1
2017-Nov-19 07:57 070 2 gusting 8 17.2
2017-Nov-19 06:57 068 3 gusting 7 17.2
2017-Nov-19 05:57 068 2 gusting 6 17.8
2017-Nov-19 04:57 073 2 gusting 6 15.6
2017-Nov-19 03:57 102 1 gusting 2 15.0
2017-Nov-19 02:57 134 16.7
2017-Nov-19 01:57 156 18.3
2017-Nov-19 00:57 268 1 gusting 4 22.2
2017-Nov-18 23:57 223 2 gusting 5 25.6
2017-Nov-18 22:57 210 1 gusting 6 26.7
2017-Nov-18 21:57 127 1 gusting 7 26.7
2017-Nov-18 20:57 225 2 gusting 8 26.1
2017-Nov-18 19:57 143 1 gusting 6 25.0
2017-Nov-18 18:57 220 3 gusting 6 23.3
2017-Nov-18 17:57 141 0 gusting 6 22.2
2017-Nov-18 16:57 045 2 gusting 8 20.0
2017-Nov-18 15:57 040 5 gusting 12 16.7
2017-Nov-18 14:57 043 6 gusting 12 13.9
2017-Nov-18 13:57 036 6 gusting 11 13.9
2017-Nov-18 12:57 040 1 gusting 5 13.3
2017-Nov-18 11:57 045 3 gusting 6 15.0
2017-Nov-18 10:57 029 2 gusting 5 14.4
2017-Nov-18 09:57 071 2 gusting 6 15.6
2017-Nov-18 08:57 079 1 gusting 5 14.4
2017-Nov-18 07:57 017 2 gusting 4 15.6
2017-Nov-18 06:57 109 2 gusting 5 16.1
2017-Nov-18 05:57 211 1 gusting 3 15.0
2017-Nov-18 04:57 243 0 gusting 3 15.6
2017-Nov-18 03:57 184 1 gusting 3 15.6
2017-Nov-18 02:57 237 1 gusting 3 16.7
2017-Nov-18 01:57 242 2 gusting 6 17.8
2017-Nov-18 00:57 234 3 gusting 7 19.4
2017-Nov-17 23:57 232 5 gusting 12 21.7
2017-Nov-17 22:57 215 5 gusting 11 22.8
2017-Nov-17 21:57 202 3 gusting 11 23.9
2017-Nov-17 20:57 259 6 gusting 11 23.3
2017-Nov-17 19:57 248 5 gusting 8 23.3
2017-Nov-17 18:57 236 3 gusting 6 22.8
2017-Nov-17 17:57 170 2 gusting 9 21.1
2017-Nov-17 16:57 254 1 gusting 5 18.3